sensor_id;sensor_type;location;lat;lon;timestamp;P1;P2;P0
57563;PMS7003;43400;45.926;6.724;2023-03-04T00:02:07;79.75;63.00;37.00
57563;PMS7003;43400;45.926;6.724;2023-03-04T00:04:39;78.80;61.00;36.00
57563;PMS7003;43400;45.926;6.724;2023-03-04T00:07:11;77.50;61.50;35.50
57563;PMS7003;43400;45.926;6.724;2023-03-04T00:09:44;78.25;61.00;35.00
57563;PMS7003;43400;45.926;6.724;2023-03-04T00:12:16;73.25;59.75;35.75
57563;PMS7003;43400;45.926;6.724;2023-03-04T00:14:48;77.60;60.20;35.00
57563;PMS7003;43400;45.926;6.724;2023-03-04T00:17:20;79.50;64.50;36.00
57563;PMS7003;43400;45.926;6.724;2023-03-04T00:19:52;80.00;61.60;37.00
57563;PMS7003;43400;45.926;6.724;2023-03-04T00:22:24;80.25;64.50;36.75
57563;PMS7003;43400;45.926;6.724;2023-03-04T00:24:57;76.75;59.50;34.50
57563;PMS7003;43400;45.926;6.724;2023-03-04T00:27:29;72.60;56.20;33.40
57563;PMS7003;43400;45.926;6.724;2023-03-04T00:30:01;75.00;59.80;34.00
57563;PMS7003;43400;45.926;6.724;2023-03-04T00:32:33;70.80;57.00;33.40
57563;PMS7003;43400;45.926;6.724;2023-03-04T00:35:05;79.75;59.50;35.25
57563;PMS7003;43400;45.926;6.724;2023-03-04T00:37:37;74.00;60.20;35.00
57563;PMS7003;43400;45.926;6.724;2023-03-04T00:40:09;71.25;57.50;35.00
57563;PMS7003;43400;45.926;6.724;2023-03-04T00:42:42;76.00;61.60;35.00
57563;PMS7003;43400;45.926;6.724;2023-03-04T00:45:14;77.40;61.00;35.80
57563;PMS7003;43400;45.926;6.724;2023-03-04T00:47:45;78.25;61.75;36.00
57563;PMS7003;43400;45.926;6.724;2023-03-04T00:50:17;75.50;60.75;35.00
57563;PMS7003;43400;45.926;6.724;2023-03-04T00:52:50;76.80;60.00;34.80
57563;PMS7003;43400;45.926;6.724;2023-03-04T00:55:22;71.25;55.50;33.00
57563;PMS7003;43400;45.926;6.724;2023-03-04T00:57:55;74.00;60.00;32.25
57563;PMS7003;43400;45.926;6.724;2023-03-04T01:00:27;76.20;60.00;34.60
57563;PMS7003;43400;45.926;6.724;2023-03-04T01:02:59;73.75;60.00;35.25
57563;PMS7003;43400;45.926;6.724;2023-03-04T01:05:31;71.50;57.00;34.25
57563;PMS7003;43400;45.926;6.724;2023-03-04T01:08:03;75.75;61.25;33.50
57563;PMS7003;43400;45.926;6.724;2023-03-04T01:10:35;70.60;57.00;33.40
57563;PMS7003;43400;45.926;6.724;2023-03-04T01:13:06;69.50;57.00;34.00
57563;PMS7003;43400;45.926;6.724;2023-03-04T01:15:38;73.00;59.75;34.75
57563;PMS7003;43400;45.926;6.724;2023-03-04T01:18:09;73.50;60.00;35.00
57563;PMS7003;43400;45.926;6.724;2023-03-04T01:20:41;73.25;57.25;34.00
57563;PMS7003;43400;45.926;6.724;2023-03-04T01:23:15;73.80;57.00;35.00
57563;PMS7003;43400;45.926;6.724;2023-03-04T01:25:48;74.25;60.00;33.50
57563;PMS7003;43400;45.926;6.724;2023-03-04T01:28:19;70.50;57.00;33.00
57563;PMS7003;43400;45.926;6.724;2023-03-04T01:30:51;72.50;57.50;33.50
57563;PMS7003;43400;45.926;6.724;2023-03-04T01:33:23;74.00;59.00;36.00
57563;PMS7003;43400;45.926;6.724;2023-03-04T01:35:55;73.00;57.50;34.00
57563;PMS7003;43400;45.926;6.724;2023-03-04T01:38:27;70.60;57.40;35.00
57563;PMS7003;43400;45.926;6.724;2023-03-04T01:40:59;70.60;56.40;33.00
57563;PMS7003;43400;45.926;6.724;2023-03-04T01:43:31;78.75;58.00;35.00
57563;PMS7003;43400;45.926;6.724;2023-03-04T01:46:08;73.00;58.80;36.00
57563;PMS7003;43400;45.926;6.724;2023-03-04T01:48:42;73.75;57.25;34.50
57563;PMS7003;43400;45.926;6.724;2023-03-04T01:51:15;77.25;60.75;34.00
57563;PMS7003;43400;45.926;6.724;2023-03-04T01:53:49;71.25;57.75;34.00
57563;PMS7003;43400;45.926;6.724;2023-03-04T01:56:29;69.80;55.80;33.00
57563;PMS7003;43400;45.926;6.724;2023-03-04T02:01:43;72.67;57.00;35.00
57563;PMS7003;43400;45.926;6.724;2023-03-04T02:04:17;69.40;56.80;32.80
57563;PMS7003;43400;45.926;6.724;2023-03-04T02:06:51;78.40;62.00;35.20
57563;PMS7003;43400;45.926;6.724;2023-03-04T02:09:23;79.25;62.00;36.50
57563;PMS7003;43400;45.926;6.724;2023-03-04T02:11:55;73.00;58.60;34.00
57563;PMS7003;43400;45.926;6.724;2023-03-04T02:14:27;74.60;59.20;34.00
57563;PMS7003;43400;45.926;6.724;2023-03-04T02:16:59;76.25;60.25;34.75
57563;PMS7003;43400;45.926;6.724;2023-03-04T02:22:14;78.00;62.00;34.00
57563;PMS7003;43400;45.926;6.724;2023-03-04T02:24:53;65.00;55.00;33.20
57563;PMS7003;43400;45.926;6.724;2023-03-04T02:27:33;75.75;60.00;35.00
57563;PMS7003;43400;45.926;6.724;2023-03-04T02:30:04;72.00;56.00;34.25
57563;PMS7003;43400;45.926;6.724;2023-03-04T02:32:36;71.75;56.50;34.00
57563;PMS7003;43400;45.926;6.724;2023-03-04T02:35:12;77.50;58.75;36.00
57563;PMS7003;43400;45.926;6.724;2023-03-04T02:37:47;72.75;59.75;35.00
57563;PMS7003;43400;45.926;6.724;2023-03-04T02:40:23;70.80;56.60;33.20
57563;PMS7003;43400;45.926;6.724;2023-03-04T02:42:59;70.00;54.75;31.25
57563;PMS7003;43400;45.926;6.724;2023-03-04T02:45:39;64.80;55.00;32.40
57563;PMS7003;43400;45.926;6.724;2023-03-04T02:48:19;67.40;54.60;31.00
57563;PMS7003;43400;45.926;6.724;2023-03-04T02:50:52;68.60;54.20;31.60
57563;PMS7003;43400;45.926;6.724;2023-03-04T02:53:24;65.00;53.80;31.60
57563;PMS7003;43400;45.926;6.724;2023-03-04T02:55:56;71.00;57.40;31.00
57563;PMS7003;43400;45.926;6.724;2023-03-04T02:58:27;68.75;53.50;31.00
57563;PMS7003;43400;45.926;6.724;2023-03-04T03:00:59;68.00;55.25;31.75
57563;PMS7003;43400;45.926;6.724;2023-03-04T03:03:31;62.25;51.50;31.00
57563;PMS7003;43400;45.926;6.724;2023-03-04T03:06:02;66.00;52.50;31.00
57563;PMS7003;43400;45.926;6.724;2023-03-04T03:08:34;69.75;55.75;31.50
57563;PMS7003;43400;45.926;6.724;2023-03-04T03:11:06;62.40;51.20;31.00
57563;PMS7003;43400;45.926;6.724;2023-03-04T03:13:37;66.75;53.00;30.00
57563;PMS7003;43400;45.926;6.724;2023-03-04T03:16:09;69.50;57.00;31.00
57563;PMS7003;43400;45.926;6.724;2023-03-04T03:18:41;66.00;55.25;30.25
57563;PMS7003;43400;45.926;6.724;2023-03-04T03:21:12;67.00;53.80;31.00
57563;PMS7003;43400;45.926;6.724;2023-03-04T03:23:43;68.00;55.00;30.75
57563;PMS7003;43400;45.926;6.724;2023-03-04T03:26:15;69.00;55.25;30.25
57563;PMS7003;43400;45.926;6.724;2023-03-04T03:28:47;73.75;57.00;30.00
57563;PMS7003;43400;45.926;6.724;2023-03-04T03:31:19;64.00;53.00;30.00
57563;PMS7003;43400;45.926;6.724;2023-03-04T03:33:51;72.00;56.75;31.00
57563;PMS7003;43400;45.926;6.724;2023-03-04T03:36:22;68.00;54.75;31.00
57563;PMS7003;43400;45.926;6.724;2023-03-04T03:38:54;68.00;55.00;31.00
57563;PMS7003;43400;45.926;6.724;2023-03-04T03:41:25;68.00;56.00;30.75
57563;PMS7003;43400;45.926;6.724;2023-03-04T03:43:57;69.20;55.00;31.20
57563;PMS7003;43400;45.926;6.724;2023-03-04T03:46:28;71.00;56.00;30.25
57563;PMS7003;43400;45.926;6.724;2023-03-04T03:49:00;67.25;55.00;31.00
57563;PMS7003;43400;45.926;6.724;2023-03-04T03:51:31;68.75;55.75;32.25
57563;PMS7003;43400;45.926;6.724;2023-03-04T03:54:03;59.00;49.40;28.00
57563;PMS7003;43400;45.926;6.724;2023-03-04T03:56:35;64.75;53.00;30.00
57563;PMS7003;43400;45.926;6.724;2023-03-04T03:59:06;67.40;53.40;30.00
57563;PMS7003;43400;45.926;6.724;2023-03-04T04:01:38;67.25;54.00;30.00
57563;PMS7003;43400;45.926;6.724;2023-03-04T04:04:10;64.80;52.20;30.00
57563;PMS7003;43400;45.926;6.724;2023-03-04T04:06:41;59.60;48.80;27.00
57563;PMS7003;43400;45.926;6.724;2023-03-04T04:09:13;64.80;51.00;30.40
57563;PMS7003;43400;45.926;6.724;2023-03-04T04:11:44;57.50;48.50;29.00
57563;PMS7003;43400;45.926;6.724;2023-03-04T04:14:16;64.40;51.80;27.00
57563;PMS7003;43400;45.926;6.724;2023-03-04T04:16:48;64.33;51.00;28.33
57563;PMS7003;43400;45.926;6.724;2023-03-04T04:19:19;64.00;50.80;30.40
57563;PMS7003;43400;45.926;6.724;2023-03-04T04:21:51;64.75;51.75;29.00
57563;PMS7003;43400;45.926;6.724;2023-03-04T04:24:22;61.00;50.00;29.00
57563;PMS7003;43400;45.926;6.724;2023-03-04T04:26:54;68.25;56.00;30.00
57563;PMS7003;43400;45.926;6.724;2023-03-04T04:29:26;63.25;51.75;30.25
57563;PMS7003;43400;45.926;6.724;2023-03-04T04:31:57;68.75;53.50;30.00
57563;PMS7003;43400;45.926;6.724;2023-03-04T04:34:29;64.40;53.00;28.40
57563;PMS7003;43400;45.926;6.724;2023-03-04T04:37:01;64.25;51.75;30.00
57563;PMS7003;43400;45.926;6.724;2023-03-04T04:39:32;64.60;52.40;30.20
57563;PMS7003;43400;45.926;6.724;2023-03-04T04:42:04;60.50;49.25;30.00
57563;PMS7003;43400;45.926;6.724;2023-03-04T04:44:36;64.00;52.75;30.25
57563;PMS7003;43400;45.926;6.724;2023-03-04T04:47:08;65.00;52.00;30.00
57563;PMS7003;43400;45.926;6.724;2023-03-04T04:49:40;60.00;47.00;30.00
57563;PMS7003;43400;45.926;6.724;2023-03-04T04:52:11;68.80;53.00;30.00
57563;PMS7003;43400;45.926;6.724;2023-03-04T04:54:43;66.75;54.50;31.00
57563;PMS7003;43400;45.926;6.724;2023-03-04T04:57:14;72.50;56.00;31.50
57563;PMS7003;43400;45.926;6.724;2023-03-04T04:59:46;68.50;56.00;30.00
57563;PMS7003;43400;45.926;6.724;2023-03-04T05:02:17;68.20;52.60;30.20
57563;PMS7003;43400;45.926;6.724;2023-03-04T05:04:49;64.40;53.60;28.80
57563;PMS7003;43400;45.926;6.724;2023-03-04T05:07:20;71.60;54.60;30.00
57563;PMS7003;43400;45.926;6.724;2023-03-04T05:09:52;65.00;52.50;30.75
57563;PMS7003;43400;45.926;6.724;2023-03-04T05:12:24;66.80;53.60;28.40
57563;PMS7003;43400;45.926;6.724;2023-03-04T05:14:55;53.80;46.00;28.00
57563;PMS7003;43400;45.926;6.724;2023-03-04T05:17:27;65.25;52.00;30.25
57563;PMS7003;43400;45.926;6.724;2023-03-04T05:19:58;62.50;49.00;28.50
57563;PMS7003;43400;45.926;6.724;2023-03-04T05:22:30;68.75;53.25;31.00
57563;PMS7003;43400;45.926;6.724;2023-03-04T05:25:02;64.25;51.25;30.50
57563;PMS7003;43400;45.926;6.724;2023-03-04T05:27:33;61.50;47.50;26.25
57563;PMS7003;43400;45.926;6.724;2023-03-04T05:30:05;64.00;49.00;27.25
57563;PMS7003;43400;45.926;6.724;2023-03-04T05:32:37;56.40;47.00;28.80
57563;PMS7003;43400;45.926;6.724;2023-03-04T05:35:09;61.00;51.00;28.00
57563;PMS7003;43400;45.926;6.724;2023-03-04T05:37:40;64.25;52.75;30.00
57563;PMS7003;43400;45.926;6.724;2023-03-04T05:40:12;61.50;49.25;26.00
57563;PMS7003;43400;45.926;6.724;2023-03-04T05:42:43;59.80;47.00;27.60
57563;PMS7003;43400;45.926;6.724;2023-03-04T05:45:15;57.25;47.00;28.00
57563;PMS7003;43400;45.926;6.724;2023-03-04T05:47:47;61.25;49.00;27.75
57563;PMS7003;43400;45.926;6.724;2023-03-04T05:50:18;60.20;50.40;27.60
57563;PMS7003;43400;45.926;6.724;2023-03-04T05:52:51;58.60;46.80;27.60
57563;PMS7003;43400;45.926;6.724;2023-03-04T05:55:23;60.75;47.25;28.00
57563;PMS7003;43400;45.926;6.724;2023-03-04T05:57:55;59.40;48.60;28.40
57563;PMS7003;43400;45.926;6.724;2023-03-04T06:00:27;62.75;47.00;27.50
57563;PMS7003;43400;45.926;6.724;2023-03-04T06:02:59;57.20;47.40;26.20
57563;PMS7003;43400;45.926;6.724;2023-03-04T06:05:31;50.50;45.50;27.50
57563;PMS7003;43400;45.926;6.724;2023-03-04T06:08:02;58.00;47.40;26.00
57563;PMS7003;43400;45.926;6.724;2023-03-04T06:10:34;52.40;45.20;27.00
57563;PMS7003;43400;45.926;6.724;2023-03-04T06:13:06;60.80;50.00;27.20
57563;PMS7003;43400;45.926;6.724;2023-03-04T06:15:38;55.50;46.50;27.75
57563;PMS7003;43400;45.926;6.724;2023-03-04T06:18:10;62.60;48.80;29.00
57563;PMS7003;43400;45.926;6.724;2023-03-04T06:20:41;55.50;47.00;26.00
57563;PMS7003;43400;45.926;6.724;2023-03-04T06:23:13;65.60;52.20;26.20
57563;PMS7003;43400;45.926;6.724;2023-03-04T06:25:45;61.50;49.75;28.50
57563;PMS7003;43400;45.926;6.724;2023-03-04T06:28:16;69.75;58.00;34.00
57563;PMS7003;43400;45.926;6.724;2023-03-04T06:30:50;65.50;51.75;30.00
57563;PMS7003;43400;45.926;6.724;2023-03-04T06:33:22;66.00;54.00;28.00
57563;PMS7003;43400;45.926;6.724;2023-03-04T06:35:54;59.00;48.50;29.00
57563;PMS7003;43400;45.926;6.724;2023-03-04T06:38:27;70.00;53.00;29.00
57563;PMS7003;43400;45.926;6.724;2023-03-04T06:41:06;60.80;51.20;29.00
57563;PMS7003;43400;45.926;6.724;2023-03-04T06:43:41;59.60;50.40;28.80
57563;PMS7003;43400;45.926;6.724;2023-03-04T06:46:13;60.75;50.00;27.00
57563;PMS7003;43400;45.926;6.724;2023-03-04T06:48:44;66.60;54.00;30.00
57563;PMS7003;43400;45.926;6.724;2023-03-04T06:51:16;65.00;52.40;29.00
57563;PMS7003;43400;45.926;6.724;2023-03-04T06:53:48;61.60;47.60;27.80
57563;PMS7003;43400;45.926;6.724;2023-03-04T06:56:19;61.00;50.00;26.75
57563;PMS7003;43400;45.926;6.724;2023-03-04T06:58:51;63.80;47.40;27.80
57563;PMS7003;43400;45.926;6.724;2023-03-04T07:01:24;62.25;51.00;29.00
57563;PMS7003;43400;45.926;6.724;2023-03-04T07:03:57;59.40;48.80;27.20
57563;PMS7003;43400;45.926;6.724;2023-03-04T07:06:29;62.60;49.20;28.40
57563;PMS7003;43400;45.926;6.724;2023-03-04T07:09:00;61.50;51.00;28.50
57563;PMS7003;43400;45.926;6.724;2023-03-04T07:11:32;54.00;47.00;28.75
57563;PMS7003;43400;45.926;6.724;2023-03-04T07:14:04;62.50;45.25;26.00
57563;PMS7003;43400;45.926;6.724;2023-03-04T07:16:35;60.60;50.20;27.40
57563;PMS7003;43400;45.926;6.724;2023-03-04T07:19:07;62.25;52.00;28.50
57563;PMS7003;43400;45.926;6.724;2023-03-04T07:21:39;61.00;49.40;28.00
57563;PMS7003;43400;45.926;6.724;2023-03-04T07:24:10;59.20;49.60;28.00
57563;PMS7003;43400;45.926;6.724;2023-03-04T07:26:42;57.00;46.50;27.50
57563;PMS7003;43400;45.926;6.724;2023-03-04T07:29:13;62.00;49.80;27.00
57563;PMS7003;43400;45.926;6.724;2023-03-04T07:31:45;62.75;46.25;26.00
57563;PMS7003;43400;45.926;6.724;2023-03-04T07:34:17;59.75;50.50;27.00
57563;PMS7003;43400;45.926;6.724;2023-03-04T07:36:48;59.75;47.50;26.50
57563;PMS7003;43400;45.926;6.724;2023-03-04T07:39:20;58.75;49.00;27.00
57563;PMS7003;43400;45.926;6.724;2023-03-04T07:41:51;59.25;50.00;27.25
57563;PMS7003;43400;45.926;6.724;2023-03-04T07:44:23;52.75;46.50;28.00
57563;PMS7003;43400;45.926;6.724;2023-03-04T07:46:55;61.00;51.00;27.25
57563;PMS7003;43400;45.926;6.724;2023-03-04T07:49:26;65.50;50.50;27.25
57563;PMS7003;43400;45.926;6.724;2023-03-04T07:52:01;61.50;50.50;28.00
57563;PMS7003;43400;45.926;6.724;2023-03-04T07:54:34;54.75;47.00;28.00
57563;PMS7003;43400;45.926;6.724;2023-03-04T07:57:05;63.50;52.50;31.00
57563;PMS7003;43400;45.926;6.724;2023-03-04T07:59:37;63.75;51.50;29.75
57563;PMS7003;43400;45.926;6.724;2023-03-04T08:02:09;58.60;46.40;27.80
57563;PMS7003;43400;45.926;6.724;2023-03-04T08:04:40;60.50;48.75;27.25
57563;PMS7003;43400;45.926;6.724;2023-03-04T08:07:12;57.80;49.00;28.00
57563;PMS7003;43400;45.926;6.724;2023-03-04T08:09:44;61.75;48.00;27.75
57563;PMS7003;43400;45.926;6.724;2023-03-04T08:12:15;66.75;54.00;28.75
57563;PMS7003;43400;45.926;6.724;2023-03-04T08:14:47;73.00;59.20;33.00
57563;PMS7003;43400;45.926;6.724;2023-03-04T08:17:18;66.00;54.00;31.00
57563;PMS7003;43400;45.926;6.724;2023-03-04T08:19:50;60.50;49.75;27.50
57563;PMS7003;43400;45.926;6.724;2023-03-04T08:22:22;59.75;50.00;29.00
57563;PMS7003;43400;45.926;6.724;2023-03-04T08:24:53;62.60;51.80;29.00
57563;PMS7003;43400;45.926;6.724;2023-03-04T08:27:25;59.25;49.50;28.00
57563;PMS7003;43400;45.926;6.724;2023-03-04T08:29:56;50.20;42.60;27.20
57563;PMS7003;43400;45.926;6.724;2023-03-04T08:32:28;60.75;47.25;25.00
57563;PMS7003;43400;45.926;6.724;2023-03-04T08:35:00;57.80;48.00;28.00
57563;PMS7003;43400;45.926;6.724;2023-03-04T08:37:31;62.25;49.25;29.25
57563;PMS7003;43400;45.926;6.724;2023-03-04T08:40:03;61.80;50.00;29.00
57563;PMS7003;43400;45.926;6.724;2023-03-04T08:42:35;61.40;47.20;28.80
57563;PMS7003;43400;45.926;6.724;2023-03-04T08:45:07;59.20;48.00;28.00
57563;PMS7003;43400;45.926;6.724;2023-03-04T08:47:39;59.75;50.00;28.00
57563;PMS7003;43400;45.926;6.724;2023-03-04T08:50:11;64.75;52.00;28.00
57563;PMS7003;43400;45.926;6.724;2023-03-04T08:52:42;59.75;49.75;28.00
57563;PMS7003;43400;45.926;6.724;2023-03-04T08:55:14;59.20;50.20;27.80
57563;PMS7003;43400;45.926;6.724;2023-03-04T08:57:45;60.00;49.00;29.00
57563;PMS7003;43400;45.926;6.724;2023-03-04T09:00:17;61.60;50.60;27.60
57563;PMS7003;43400;45.926;6.724;2023-03-04T09:02:49;60.25;50.00;29.25
57563;PMS7003;43400;45.926;6.724;2023-03-04T09:05:21;59.00;49.25;29.00
57563;PMS7003;43400;45.926;6.724;2023-03-04T09:07:52;59.50;47.50;28.00
57563;PMS7003;43400;45.926;6.724;2023-03-04T09:10:24;63.75;51.25;29.00
57563;PMS7003;43400;45.926;6.724;2023-03-04T09:12:56;59.75;50.00;27.75
57563;PMS7003;43400;45.926;6.724;2023-03-04T09:15:28;59.00;48.00;28.75
57563;PMS7003;43400;45.926;6.724;2023-03-04T09:18:01;62.50;47.25;26.75
57563;PMS7003;43400;45.926;6.724;2023-03-04T09:20:33;59.20;48.20;28.00
57563;PMS7003;43400;45.926;6.724;2023-03-04T09:23:04;58.20;47.40;28.00
57563;PMS7003;43400;45.926;6.724;2023-03-04T09:25:36;59.25;49.00;28.25
57563;PMS7003;43400;45.926;6.724;2023-03-04T09:28:09;60.00;46.00;28.00
57563;PMS7003;43400;45.926;6.724;2023-03-04T09:30:41;63.00;53.00;29.00
57563;PMS7003;43400;45.926;6.724;2023-03-04T09:33:14;62.00;50.50;28.75
57563;PMS7003;43400;45.926;6.724;2023-03-04T09:35:46;61.75;48.00;28.00
57563;PMS7003;43400;45.926;6.724;2023-03-04T09:38:17;62.00;49.80;29.80
57563;PMS7003;43400;45.926;6.724;2023-03-04T09:40:49;60.00;47.40;28.00
57563;PMS7003;43400;45.926;6.724;2023-03-04T09:43:24;59.00;49.25;29.00
57563;PMS7003;43400;45.926;6.724;2023-03-04T09:46:09;63.00;52.00;30.00
57563;PMS7003;43400;45.926;6.724;2023-03-04T09:48:49;57.75;48.00;29.00
57563;PMS7003;43400;45.926;6.724;2023-03-04T09:57:09;62.75;49.75;29.00
57563;PMS7003;43400;45.926;6.724;2023-03-04T09:59:48;65.00;52.50;29.00
57563;PMS7003;43400;45.926;6.724;2023-03-04T10:05:17;57.80;47.60;27.80
57563;PMS7003;43400;45.926;6.724;2023-03-04T10:08:04;62.50;48.00;27.00
57563;PMS7003;43400;45.926;6.724;2023-03-04T10:10:50;61.25;50.00;30.00
57563;PMS7003;43400;45.926;6.724;2023-03-04T10:27:49;58.40;47.40;28.00
57563;PMS7003;43400;45.926;6.724;2023-03-04T10:33:21;57.00;47.00;27.00
57563;PMS7003;43400;45.926;6.724;2023-03-04T10:36:00;61.40;51.60;28.80
57563;PMS7003;43400;45.926;6.724;2023-03-04T10:38:36;59.40;44.20;27.00
57563;PMS7003;43400;45.926;6.724;2023-03-04T10:41:21;56.60;46.40;27.00
57563;PMS7003;43400;45.926;6.724;2023-03-04T10:46:39;62.50;49.50;28.75
57563;PMS7003;43400;45.926;6.724;2023-03-04T10:49:13;57.25;47.50;27.00
57563;PMS7003;43400;45.926;6.724;2023-03-04T10:51:47;60.00;47.00;27.00
57563;PMS7003;43400;45.926;6.724;2023-03-04T10:54:41;60.50;48.00;27.50
57563;PMS7003;43400;45.926;6.724;2023-03-04T10:57:17;56.50;43.25;26.50
57563;PMS7003;43400;45.926;6.724;2023-03-04T10:59:57;53.60;44.40;25.80
57563;PMS7003;43400;45.926;6.724;2023-03-04T11:02:32;56.00;46.25;27.75
57563;PMS7003;43400;45.926;6.724;2023-03-04T11:07:40;56.50;45.50;27.75
57563;PMS7003;43400;45.926;6.724;2023-03-04T11:12:48;54.75;44.50;27.00
57563;PMS7003;43400;45.926;6.724;2023-03-04T11:15:30;52.25;42.25;26.50
57563;PMS7003;43400;45.926;6.724;2023-03-04T11:21:18;49.40;41.60;24.40
57563;PMS7003;43400;45.926;6.724;2023-03-04T11:26:35;51.75;42.25;23.50
57563;PMS7003;43400;45.926;6.724;2023-03-04T11:34:41;56.50;45.75;27.75
57563;PMS7003;43400;45.926;6.724;2023-03-04T11:54:28;50.00;41.00;26.00
57563;PMS7003;43400;45.926;6.724;2023-03-04T12:03:22;55.00;45.75;28.00
57563;PMS7003;43400;45.926;6.724;2023-03-04T12:05:51;55.40;43.60;24.20
57563;PMS7003;43400;45.926;6.724;2023-03-04T12:08:52;51.00;42.00;24.80
57563;PMS7003;43400;45.926;6.724;2023-03-04T12:11:54;51.75;43.00;24.50
57563;PMS7003;43400;45.926;6.724;2023-03-04T12:31:52;51.00;42.00;25.75
57563;PMS7003;43400;45.926;6.724;2023-03-04T12:40:02;51.00;42.00;27.00
57563;PMS7003;43400;45.926;6.724;2023-03-04T12:43:07;49.20;41.00;24.00
57563;PMS7003;43400;45.926;6.724;2023-03-04T12:46:04;49.20;41.60;25.00
57563;PMS7003;43400;45.926;6.724;2023-03-04T12:48:41;47.50;40.50;22.00
57563;PMS7003;43400;45.926;6.724;2023-03-04T12:51:29;47.75;39.75;23.75
57563;PMS7003;43400;45.926;6.724;2023-03-04T12:57:01;50.40;40.40;24.00
57563;PMS7003;43400;45.926;6.724;2023-03-04T13:00:38;52.00;41.60;23.80
57563;PMS7003;43400;45.926;6.724;2023-03-04T13:02:54;50.25;42.00;25.00
57563;PMS7003;43400;45.926;6.724;2023-03-04T13:05:56;49.60;41.40;23.80
57563;PMS7003;43400;45.926;6.724;2023-03-04T13:22:56;45.50;39.25;24.25
57563;PMS7003;43400;45.926;6.724;2023-03-04T13:28:11;46.67;39.00;24.00
57563;PMS7003;43400;45.926;6.724;2023-03-04T13:38:31;42.00;36.00;20.00
57563;PMS7003;43400;45.926;6.724;2023-03-04T13:43:59;42.00;36.00;23.00
57563;PMS7003;43400;45.926;6.724;2023-03-04T13:46:39;41.00;35.00;22.33
57563;PMS7003;43400;45.926;6.724;2023-03-04T13:49:20;43.00;35.25;22.25
57563;PMS7003;43400;45.926;6.724;2023-03-04T13:51:53;42.00;35.40;23.00
57563;PMS7003;43400;45.926;6.724;2023-03-04T13:54:29;40.60;34.40;21.40
57563;PMS7003;43400;45.926;6.724;2023-03-04T13:57:20;43.00;36.50;22.00
57563;PMS7003;43400;45.926;6.724;2023-03-04T13:59:55;39.20;34.20;22.00
57563;PMS7003;43400;45.926;6.724;2023-03-04T14:02:28;39.50;35.00;21.00
57563;PMS7003;43400;45.926;6.724;2023-03-04T14:05:04;38.40;34.20;22.00
57563;PMS7003;43400;45.926;6.724;2023-03-04T14:07:36;44.00;36.00;22.00
57563;PMS7003;43400;45.926;6.724;2023-03-04T14:12:43;42.75;36.75;22.00
57563;PMS7003;43400;45.926;6.724;2023-03-04T14:15:29;37.00;33.75;21.50
57563;PMS7003;43400;45.926;6.724;2023-03-04T14:18:02;42.50;36.75;22.00
57563;PMS7003;43400;45.926;6.724;2023-03-04T14:20:36;39.00;33.75;22.50
57563;PMS7003;43400;45.926;6.724;2023-03-04T14:26:05;38.00;33.00;21.80
57563;PMS7003;43400;45.926;6.724;2023-03-04T14:28:43;40.00;35.00;22.00
57563;PMS7003;43400;45.926;6.724;2023-03-04T14:31:20;38.00;33.00;21.60
57563;PMS7003;43400;45.926;6.724;2023-03-04T14:33:53;40.20;34.20;22.00
57563;PMS7003;43400;45.926;6.724;2023-03-04T14:36:27;43.25;36.00;22.75
57563;PMS7003;43400;45.926;6.724;2023-03-04T14:39:04;38.75;34.50;21.75
57563;PMS7003;43400;45.926;6.724;2023-03-04T14:41:38;40.00;33.75;21.75
57563;PMS7003;43400;45.926;6.724;2023-03-04T14:46:49;40.25;34.75;22.00
57563;PMS7003;43400;45.926;6.724;2023-03-04T14:49:28;41.75;34.00;23.00
57563;PMS7003;43400;45.926;6.724;2023-03-04T14:51:59;45.50;37.00;22.00
57563;PMS7003;43400;45.926;6.724;2023-03-04T14:54:35;48.00;40.00;23.75
57563;PMS7003;43400;45.926;6.724;2023-03-04T14:57:21;48.20;40.80;24.00
57563;PMS7003;43400;45.926;6.724;2023-03-04T15:00:17;41.80;36.40;22.80
57563;PMS7003;43400;45.926;6.724;2023-03-04T15:02:59;45.00;38.00;22.50
57563;PMS7003;43400;45.926;6.724;2023-03-04T15:05:33;46.00;37.75;23.00
57563;PMS7003;43400;45.926;6.724;2023-03-04T15:08:23;47.50;40.50;24.00
57563;PMS7003;43400;45.926;6.724;2023-03-04T15:11:00;46.50;39.25;23.75
57563;PMS7003;43400;45.926;6.724;2023-03-04T15:13:41;53.25;43.00;25.75
57563;PMS7003;43400;45.926;6.724;2023-03-04T15:16:18;50.75;42.00;24.75
57563;PMS7003;43400;45.926;6.724;2023-03-04T15:18:59;49.00;40.25;24.75
57563;PMS7003;43400;45.926;6.724;2023-03-04T15:21:37;49.50;40.00;24.00
57563;PMS7003;43400;45.926;6.724;2023-03-04T15:24:10;50.00;42.25;25.00
57563;PMS7003;43400;45.926;6.724;2023-03-04T15:26:42;49.75;41.00;25.00
57563;PMS7003;43400;45.926;6.724;2023-03-04T15:29:15;47.75;40.00;25.00
57563;PMS7003;43400;45.926;6.724;2023-03-04T15:31:48;50.50;41.00;25.00
57563;PMS7003;43400;45.926;6.724;2023-03-04T15:34:20;49.00;41.00;25.00
57563;PMS7003;43400;45.926;6.724;2023-03-04T15:36:51;50.00;41.25;24.50
57563;PMS7003;43400;45.926;6.724;2023-03-04T15:39:24;51.40;42.00;25.00
57563;PMS7003;43400;45.926;6.724;2023-03-04T15:41:55;48.50;42.25;24.00
57563;PMS7003;43400;45.926;6.724;2023-03-04T15:44:27;48.00;39.00;24.00
57563;PMS7003;43400;45.926;6.724;2023-03-04T15:47:00;47.00;39.25;24.00
57563;PMS7003;43400;45.926;6.724;2023-03-04T15:49:31;47.00;40.50;25.00
57563;PMS7003;43400;45.926;6.724;2023-03-04T15:52:03;52.20;42.80;26.60
57563;PMS7003;43400;45.926;6.724;2023-03-04T15:54:37;50.20;41.40;25.00
57563;PMS7003;43400;45.926;6.724;2023-03-04T15:57:14;48.75;40.00;25.25
57563;PMS7003;43400;45.926;6.724;2023-03-04T15:59:52;50.00;39.25;25.00
57563;PMS7003;43400;45.926;6.724;2023-03-04T16:02:24;45.20;38.40;26.00
57563;PMS7003;43400;45.926;6.724;2023-03-04T16:04:56;47.75;39.00;25.00
57563;PMS7003;43400;45.926;6.724;2023-03-04T16:07:28;51.75;42.00;25.00
57563;PMS7003;43400;45.926;6.724;2023-03-04T16:10:03;51.80;42.00;24.40
57563;PMS7003;43400;45.926;6.724;2023-03-04T16:12:37;51.25;43.00;25.50
57563;PMS7003;43400;45.926;6.724;2023-03-04T16:15:11;50.00;42.20;24.40
57563;PMS7003;43400;45.926;6.724;2023-03-04T16:17:45;52.00;42.25;25.50
57563;PMS7003;43400;45.926;6.724;2023-03-04T16:20:18;47.50;41.00;27.00
57563;PMS7003;43400;45.926;6.724;2023-03-04T16:22:53;57.75;44.75;26.50
57563;PMS7003;43400;45.926;6.724;2023-03-04T16:25:28;50.25;41.00;26.00
57563;PMS7003;43400;45.926;6.724;2023-03-04T16:27:59;52.75;43.50;26.00
57563;PMS7003;43400;45.926;6.724;2023-03-04T16:30:31;46.00;40.50;26.00
57563;PMS7003;43400;45.926;6.724;2023-03-04T16:33:03;55.75;42.50;26.00
57563;PMS7003;43400;45.926;6.724;2023-03-04T16:35:36;49.00;42.40;25.00
57563;PMS7003;43400;45.926;6.724;2023-03-04T16:38:27;47.33;40.67;25.00
57563;PMS7003;43400;45.926;6.724;2023-03-04T16:41:01;53.00;43.20;25.00